sensor_id;sensor_type;location;lat;lon;timestamp;pressure;altitude;pressure_sealevel;temperature;humidity
75740;BME280;64357;51.344;6.550;2023-05-07T00:01:05;101126.16;;;14.98;100.00
75740;BME280;64357;51.344;6.550;2023-05-07T00:03:31;101118.44;;;14.98;100.00
75740;BME280;64357;51.344;6.550;2023-05-07T00:05:57;101126.94;;;14.97;100.00
75740;BME280;64357;51.344;6.550;2023-05-07T00:08:23;101122.16;;;14.91;100.00
75740;BME280;64357;51.344;6.550;2023-05-07T00:10:51;101127.19;;;14.89;100.00
75740;BME280;64357;51.344;6.550;2023-05-07T00:13:16;101129.47;;;14.86;100.00
75740;BME280;64357;51.344;6.550;2023-05-07T00:15:41;101133.47;;;14.93;100.00
75740;BME280;64357;51.344;6.550;2023-05-07T00:18:07;101126.13;;;14.87;100.00
75740;BME280;64357;51.344;6.550;2023-05-07T00:20:32;101123.44;;;14.86;100.00
75740;BME280;64357;51.344;6.550;2023-05-07T00:23:00;101129.88;;;14.91;100.00
75740;BME280;64357;51.344;6.550;2023-05-07T00:25:28;101130.78;;;14.91;100.00
75740;BME280;64357;51.344;6.550;2023-05-07T00:27:56;101126.13;;;14.87;100.00
75740;BME280;64357;51.344;6.550;2023-05-07T00:30:27;101121.50;;;14.83;100.00
75740;BME280;64357;51.344;6.550;2023-05-07T00:32:53;101132.16;;;14.88;100.00
75740;BME280;64357;51.344;6.550;2023-05-07T00:35:25;101124.34;;;14.86;100.00
75740;BME280;64357;51.344;6.550;2023-05-07T00:37:51;101111.47;;;14.86;100.00
75740;BME280;64357;51.344;6.550;2023-05-07T00:40:16;101123.31;;;14.94;100.00
75740;BME280;64357;51.344;6.550;2023-05-07T00:42:42;101117.91;;;14.91;100.00
75740;BME280;64357;51.344;6.550;2023-05-07T00:45:13;101123.31;;;14.94;100.00
75740;BME280;64357;51.344;6.550;2023-05-07T00:47:44;101101.84;;;14.94;100.00
75740;BME280;64357;51.344;6.550;2023-05-07T00:50:09;101110.44;;;14.94;100.00
75740;BME280;64357;51.344;6.550;2023-05-07T00:52:37;101105.31;;;14.94;100.00
75740;BME280;64357;51.344;6.550;2023-05-07T00:55:05;101100.94;;;14.93;100.00
75740;BME280;64357;51.344;6.550;2023-05-07T00:57:36;101109.56;;;14.94;100.00
75740;BME280;64357;51.344;6.550;2023-05-07T01:00:07;101100.41;;;14.87;100.00
75740;BME280;64357;51.344;6.550;2023-05-07T01:02:34;101098.88;;;14.89;100.00
75740;BME280;64357;51.344;6.550;2023-05-07T01:05:03;101095.13;;;14.86;100.00
75740;BME280;64357;51.344;6.550;2023-05-07T01:07:31;101098.38;;;14.93;100.00
75740;BME280;64357;51.344;6.550;2023-05-07T01:09:59;101091.91;;;14.88;100.00
75740;BME280;64357;51.344;6.550;2023-05-07T01:12:26;101088.44;;;14.88;100.00
75740;BME280;64357;51.344;6.550;2023-05-07T01:14:53;101086.78;;;14.88;100.00
75740;BME280;64357;51.344;6.550;2023-05-07T01:17:19;101092.56;;;14.86;100.00
75740;BME280;64357;51.344;6.550;2023-05-07T01:19:44;101084.72;;;14.84;100.00
75740;BME280;64357;51.344;6.550;2023-05-07T01:22:16;101089.47;;;14.80;100.00
75740;BME280;64357;51.344;6.550;2023-05-07T01:24:46;101084.44;;;14.81;100.00
75740;BME280;64357;51.344;6.550;2023-05-07T01:27:12;101092.28;;;14.83;100.00
75740;BME280;64357;51.344;6.550;2023-05-07T01:29:40;101092.66;;;14.77;100.00
75740;BME280;64357;51.344;6.550;2023-05-07T01:32:08;101089.56;;;14.71;100.00
75740;BME280;64357;51.344;6.550;2023-05-07T01:34:37;101090.84;;;14.66;100.00
75740;BME280;64357;51.344;6.550;2023-05-07T01:37:02;101094.94;;;14.64;100.00
75740;BME280;64357;51.344;6.550;2023-05-07T01:39:31;101093.91;;;14.62;100.00
75740;BME280;64357;51.344;6.550;2023-05-07T01:42:01;101103.31;;;14.61;100.00
75740;BME280;64357;51.344;6.550;2023-05-07T01:44:26;101096.22;;;14.59;100.00
75740;BME280;64357;51.344;6.550;2023-05-07T01:46:55;101091.47;;;14.63;100.00
75740;BME280;64357;51.344;6.550;2023-05-07T01:49:24;101093.16;;;14.63;100.00
75740;BME280;64357;51.344;6.550;2023-05-07T01:51:51;101089.28;;;14.58;100.00
75740;BME280;64357;51.344;6.550;2023-05-07T01:54:16;101088.84;;;14.53;100.00
75740;BME280;64357;51.344;6.550;2023-05-07T01:56:42;101090.53;;;14.53;100.00
75740;BME280;64357;51.344;6.550;2023-05-07T01:59:09;101090.41;;;14.51;100.00
75740;BME280;64357;51.344;6.550;2023-05-07T02:01:37;101097.09;;;14.49;100.00
75740;BME280;64357;51.344;6.550;2023-05-07T02:04:05;101089.31;;;14.39;100.00
75740;BME280;64357;51.344;6.550;2023-05-07T02:06:33;101095.47;;;14.41;100.00
75740;BME280;64357;51.344;6.550;2023-05-07T02:08:58;101095.22;;;14.38;100.00
75740;BME280;64357;51.344;6.550;2023-05-07T02:11:23;101094.16;;;14.36;100.00
75740;BME280;64357;51.344;6.550;2023-05-07T02:13:50;101095.56;;;14.32;100.00
75740;BME280;64357;51.344;6.550;2023-05-07T02:16:18;101083.22;;;14.28;100.00
75740;BME280;64357;51.344;6.550;2023-05-07T02:18:46;101089.53;;;14.32;100.00
75740;BME280;64357;51.344;6.550;2023-05-07T02:21:14;101081.06;;;14.33;100.00
75740;BME280;64357;51.344;6.550;2023-05-07T02:23:42;101082.06;;;14.35;100.00
75740;BME280;64357;51.344;6.550;2023-05-07T02:26:07;101084.81;;;14.36;100.00
75740;BME280;64357;51.344;6.550;2023-05-07T02:28:36;101080.16;;;14.32;100.00
75740;BME280;64357;51.344;6.550;2023-05-07T02:31:07;101074.72;;;14.19;100.00
75740;BME280;64357;51.344;6.550;2023-05-07T02:33:32;101082.13;;;14.16;100.00
75740;BME280;64357;51.344;6.550;2023-05-07T02:36:09;101085.53;;;14.06;100.00
75740;BME280;64357;51.344;6.550;2023-05-07T02:38:35;101080.38;;;13.96;100.00
75740;BME280;64357;51.344;6.550;2023-05-07T02:41:01;101077.25;;;13.90;100.00
75740;BME280;64357;51.344;6.550;2023-05-07T02:43:26;101075.16;;;13.86;100.00
75740;BME280;64357;51.344;6.550;2023-05-07T02:46:08;101082.09;;;13.87;100.00
75740;BME280;64357;51.344;6.550;2023-05-07T02:48:33;101068.22;;;13.85;100.00
75740;BME280;64357;51.344;6.550;2023-05-07T02:51:02;101076.81;;;13.85;100.00
75740;BME280;64357;51.344;6.550;2023-05-07T02:53:30;101081.81;;;13.84;100.00
75740;BME280;64357;51.344;6.550;2023-05-07T02:55:57;101082.84;;;13.86;100.00
75740;BME280;64357;51.344;6.550;2023-05-07T02:58:23;101086.97;;;13.84;100.00
75740;BME280;64357;51.344;6.550;2023-05-07T03:00:48;101083.69;;;13.76;100.00
75740;BME280;64357;51.344;6.550;2023-05-07T03:03:14;101089.47;;;13.74;100.00
75740;BME280;64357;51.344;6.550;2023-05-07T03:05:40;101067.03;;;13.63;100.00
75740;BME280;64357;51.344;6.550;2023-05-07T03:08:07;101093.69;;;13.73;100.00
75740;BME280;64357;51.344;6.550;2023-05-07T03:10:35;101090.97;;;13.72;100.00
75740;BME280;64357;51.344;6.550;2023-05-07T03:13:01;101089.81;;;13.68;100.00
75740;BME280;64357;51.344;6.550;2023-05-07T03:15:29;101086.59;;;13.71;100.00
75740;BME280;64357;51.344;6.550;2023-05-07T03:17:57;101082.69;;;13.66;100.00
75740;BME280;64357;51.344;6.550;2023-05-07T03:20:22;101099.94;;;13.67;100.00
75740;BME280;64357;51.344;6.550;2023-05-07T03:22:48;101080.22;;;13.57;100.00
75740;BME280;64357;51.344;6.550;2023-05-07T03:25:13;101082.56;;;13.64;100.00
75740;BME280;64357;51.344;6.550;2023-05-07T03:27:41;101082.44;;;13.63;100.00
75740;BME280;64357;51.344;6.550;2023-05-07T03:30:07;101072.78;;;13.60;100.00
75740;BME280;64357;51.344;6.550;2023-05-07T03:32:35;101088.19;;;13.60;100.00
75740;BME280;64357;51.344;6.550;2023-05-07T03:35:03;101076.88;;;13.58;100.00
75740;BME280;64357;51.344;6.550;2023-05-07T03:37:29;101081.00;;;13.56;100.00
75740;BME280;64357;51.344;6.550;2023-05-07T03:39:57;101082.66;;;13.55;100.00
75740;BME280;64357;51.344;6.550;2023-05-07T03:42:23;101078.91;;;13.52;100.00
75740;BME280;64357;51.344;6.550;2023-05-07T03:44:51;101072.66;;;13.58;100.00
75740;BME280;64357;51.344;6.550;2023-05-07T03:47:19;101069.81;;;13.55;100.00
75740;BME280;64357;51.344;6.550;2023-05-07T03:49:44;101082.91;;;13.58;100.00
75740;BME280;64357;51.344;6.550;2023-05-07T03:52:09;101073.38;;;13.66;100.00
75740;BME280;64357;51.344;6.550;2023-05-07T03:54:37;101078.28;;;13.73;100.00
75740;BME280;64357;51.344;6.550;2023-05-07T03:57:05;101077.09;;;13.70;100.00
75740;BME280;64357;51.344;6.550;2023-05-07T03:59:30;101075.97;;;13.76;100.00
75740;BME280;64357;51.344;6.550;2023-05-07T04:01:56;101080.50;;;13.79;100.00
75740;BME280;64357;51.344;6.550;2023-05-07T04:04:21;101083.47;;;13.83;100.00
75740;BME280;64357;51.344;6.550;2023-05-07T04:06:47;101088.75;;;13.85;100.00
75740;BME280;64357;51.344;6.550;2023-05-07T04:09:12;101089.78;;;13.87;100.00
75740;BME280;64357;51.344;6.550;2023-05-07T04:11:37;101087.53;;;13.90;100.00
75740;BME280;64357;51.344;6.550;2023-05-07T04:14:05;101096.72;;;13.88;100.00
75740;BME280;64357;51.344;6.550;2023-05-07T04:16:34;101093.56;;;13.91;100.00
75740;BME280;64357;51.344;6.550;2023-05-07T04:19:02;101086.88;;;13.93;100.00
75740;BME280;64357;51.344;6.550;2023-05-07T04:21:27;101088.41;;;13.91;100.00
75740;BME280;64357;51.344;6.550;2023-05-07T04:23:53;101096.88;;;13.90;100.00
75740;BME280;64357;51.344;6.550;2023-05-07T04:26:18;101088.25;;;13.89;100.00
75740;BME280;64357;51.344;6.550;2023-05-07T04:28:44;101099.84;;;13.94;100.00
75740;BME280;64357;51.344;6.550;2023-05-07T04:31:12;101099.38;;;13.98;100.00
75740;BME280;64357;51.344;6.550;2023-05-07T04:33:37;101093.47;;;13.99;100.00
75740;BME280;64357;51.344;6.550;2023-05-07T04:36:06;101100.94;;;14.06;100.00
75740;BME280;64357;51.344;6.550;2023-05-07T04:38:34;101106.84;;;14.05;100.00
75740;BME280;64357;51.344;6.550;2023-05-07T04:41:03;101100.34;;;14.09;100.00
75740;BME280;64357;51.344;6.550;2023-05-07T04:43:30;101085.53;;;14.06;100.00
75740;BME280;64357;51.344;6.550;2023-05-07T04:45:57;101084.25;;;14.01;100.00
75740;BME280;64357;51.344;6.550;2023-05-07T04:48:23;101086.81;;;14.01;100.00
75740;BME280;64357;51.344;6.550;2023-05-07T04:50:51;101089.78;;;14.06;100.00
75740;BME280;64357;51.344;6.550;2023-05-07T04:53:21;101093.59;;;14.01;100.00
75740;BME280;64357;51.344;6.550;2023-05-07T04:55:47;101094.06;;;14.16;100.00
75740;BME280;64357;51.344;6.550;2023-05-07T04:58:13;101095.25;;;14.19;100.00
75740;BME280;64357;51.344;6.550;2023-05-07T05:00:39;101091.75;;;14.19;100.00
75740;BME280;64357;51.344;6.550;2023-05-07T05:03:05;101082.13;;;14.16;100.00
75740;BME280;64357;51.344;6.550;2023-05-07T05:05:31;101087.56;;;14.19;100.00
75740;BME280;64357;51.344;6.550;2023-05-07T05:07:59;101088.84;;;14.24;100.00
75740;BME280;64357;51.344;6.550;2023-05-07T05:10:28;101098.13;;;14.32;100.00
75740;BME280;64357;51.344;6.550;2023-05-07T05:12:53;101095.22;;;14.38;100.00
75740;BME280;64357;51.344;6.550;2023-05-07T05:15:18;101100.59;;;14.41;100.00
75740;BME280;64357;51.344;6.550;2023-05-07T05:17:44;101105.69;;;14.50;100.00
75740;BME280;64357;51.344;6.550;2023-05-07T05:20:11;101108.03;;;14.57;100.00
75740;BME280;64357;51.344;6.550;2023-05-07T05:22:37;101103.84;;;14.68;99.71
75740;BME280;64357;51.344;6.550;2023-05-07T05:25:03;101092.38;;;14.64;98.75
75740;BME280;64357;51.344;6.550;2023-05-07T05:27:28;101104.50;;;14.75;99.17
75740;BME280;64357;51.344;6.550;2023-05-07T05:29:58;101092.91;;;14.70;98.36
75740;BME280;64357;51.344;6.550;2023-05-07T05:32:23;101102.94;;;14.77;97.84
75740;BME280;64357;51.344;6.550;2023-05-07T05:34:49;101110.56;;;14.86;97.60
75740;BME280;64357;51.344;6.550;2023-05-07T05:37:14;101109.31;;;14.91;97.83
75740;BME280;64357;51.344;6.550;2023-05-07T05:39:39;101112.28;;;14.96;97.26
75740;BME280;64357;51.344;6.550;2023-05-07T05:42:07;101111.38;;;15.05;96.47
75740;BME280;64357;51.344;6.550;2023-05-07T05:44:33;101124.75;;;15.11;95.24
75740;BME280;64357;51.344;6.550;2023-05-07T05:46:58;101125.81;;;15.24;94.76
75740;BME280;64357;51.344;6.550;2023-05-07T05:49:26;101121.84;;;15.27;93.67
75740;BME280;64357;51.344;6.550;2023-05-07T05:51:51;101116.44;;;15.34;92.97
75740;BME280;64357;51.344;6.550;2023-05-07T05:54:16;101122.09;;;15.51;93.03
75740;BME280;64357;51.344;6.550;2023-05-07T05:56:42;101114.38;;;15.51;92.85
75740;BME280;64357;51.344;6.550;2023-05-07T05:59:07;101121.22;;;15.60;90.64
75740;BME280;64357;51.344;6.550;2023-05-07T06:01:33;101127.69;;;15.65;91.04
75740;BME280;64357;51.344;6.550;2023-05-07T06:04:00;101123.78;;;15.70;89.91
75740;BME280;64357;51.344;6.550;2023-05-07T06:06:28;101134.25;;;15.72;90.20
75740;BME280;64357;51.344;6.550;2023-05-07T06:08:54;101131.41;;;15.69;90.23
75740;BME280;64357;51.344;6.550;2023-05-07T06:11:19;101126.13;;;15.67;90.82
75740;BME280;64357;51.344;6.550;2023-05-07T06:13:45;101143.38;;;15.68;90.56
75740;BME280;64357;51.344;6.550;2023-05-07T06:16:10;101144.16;;;15.78;90.60
75740;BME280;64357;51.344;6.550;2023-05-07T06:18:40;101144.78;;;15.85;89.94
75740;BME280;64357;51.344;6.550;2023-05-07T06:21:06;101145.41;;;15.83;89.25
75740;BME280;64357;51.344;6.550;2023-05-07T06:23:31;101141.81;;;15.91;89.44
75740;BME280;64357;51.344;6.550;2023-05-07T06:25:56;101149.03;;;15.95;89.69
75740;BME280;64357;51.344;6.550;2023-05-07T06:28:22;101147.81;;;16.12;88.11
75740;BME280;64357;51.344;6.550;2023-05-07T06:30:47;101149.13;;;16.17;87.04
75740;BME280;64357;51.344;6.550;2023-05-07T06:33:17;101149.66;;;16.13;87.12
75740;BME280;64357;51.344;6.550;2023-05-07T06:35:45;101146.56;;;16.07;86.70
75740;BME280;64357;51.344;6.550;2023-05-07T06:38:10;101144.41;;;16.01;86.49
75740;BME280;64357;51.344;6.550;2023-05-07T06:40:37;101137.78;;;16.15;86.67
75740;BME280;64357;51.344;6.550;2023-05-07T06:43:02;101139.06;;;16.30;86.60
75740;BME280;64357;51.344;6.550;2023-05-07T06:45:28;101145.59;;;16.37;84.74
75740;BME280;64357;51.344;6.550;2023-05-07T06:47:53;101139.84;;;16.51;83.88
75740;BME280;64357;51.344;6.550;2023-05-07T06:50:18;101145.03;;;16.41;83.70
75740;BME280;64357;51.344;6.550;2023-05-07T06:52:44;101149.94;;;16.48;83.07
75740;BME280;64357;51.344;6.550;2023-05-07T06:55:09;101153.66;;;16.51;83.27
75740;BME280;64357;51.344;6.550;2023-05-07T06:57:38;101145.63;;;16.59;82.92
75740;BME280;64357;51.344;6.550;2023-05-07T07:00:05;101151.53;;;16.68;82.97
75740;BME280;64357;51.344;6.550;2023-05-07T07:02:32;101147.81;;;16.96;81.57
75740;BME280;64357;51.344;6.550;2023-05-07T07:04:57;101157.78;;;17.14;79.90
75740;BME280;64357;51.344;6.550;2023-05-07T07:07:26;101151.88;;;17.26;79.38
75740;BME280;64357;51.344;6.550;2023-05-07T07:09:51;101157.78;;;17.36;78.65
75740;BME280;64357;51.344;6.550;2023-05-07T07:12:16;101153.72;;;17.39;78.74
75740;BME280;64357;51.344;6.550;2023-05-07T07:14:41;101156.59;;;17.54;77.04
75740;BME280;64357;51.344;6.550;2023-05-07T07:17:07;101155.81;;;17.55;76.81
75740;BME280;64357;51.344;6.550;2023-05-07T07:19:32;101147.00;;;17.41;76.07
75740;BME280;64357;51.344;6.550;2023-05-07T07:21:58;101144.50;;;17.31;76.74
75740;BME280;64357;51.344;6.550;2023-05-07T07:24:25;101153.66;;;17.49;76.36
75740;BME280;64357;51.344;6.550;2023-05-07T07:26:50;101152.56;;;17.57;76.24
75740;BME280;64357;51.344;6.550;2023-05-07T07:29:16;101149.50;;;17.51;75.77
75740;BME280;64357;51.344;6.550;2023-05-07T07:31:44;101154.03;;;17.54;75.99
75740;BME280;64357;51.344;6.550;2023-05-07T07:34:09;101153.56;;;17.48;75.06
75740;BME280;64357;51.344;6.550;2023-05-07T07:36:34;101161.19;;;17.58;75.53
75740;BME280;64357;51.344;6.550;2023-05-07T07:39:00;101156.97;;;18.27;74.29
75740;BME280;64357;51.344;6.550;2023-05-07T07:41:25;101161.03;;;18.47;72.61
75740;BME280;64357;51.344;6.550;2023-05-07T07:43:51;101153.56;;;18.05;74.33
75740;BME280;64357;51.344;6.550;2023-05-07T07:46:16;101155.38;;;17.82;74.23
75740;BME280;64357;51.344;6.550;2023-05-07T07:48:42;101165.75;;;18.18;73.63
75740;BME280;64357;51.344;6.550;2023-05-07T07:51:07;101161.94;;;18.13;73.68
75740;BME280;64357;51.344;6.550;2023-05-07T07:53:32;101162.94;;;18.38;73.16
75740;BME280;64357;51.344;6.550;2023-05-07T07:55:58;101158.91;;;18.77;72.26
75740;BME280;64357;51.344;6.550;2023-05-07T07:58:23;101174.25;;;19.35;69.26
75740;BME280;64357;51.344;6.550;2023-05-07T08:00:49;101168.38;;;19.13;70.12
75740;BME280;64357;51.344;6.550;2023-05-07T08:03:16;101176.00;;;19.48;68.76
75740;BME280;64357;51.344;6.550;2023-05-07T08:05:47;101182.75;;;19.46;69.53
75740;BME280;64357;51.344;6.550;2023-05-07T08:08:14;101176.66;;;19.45;69.92
75740;BME280;64357;51.344;6.550;2023-05-07T08:10:40;101168.94;;;19.09;70.91
75740;BME280;64357;51.344;6.550;2023-05-07T08:13:05;101170.88;;;19.00;70.72
75740;BME280;64357;51.344;6.550;2023-05-07T08:15:36;101184.44;;;19.45;70.78
75740;BME280;64357;51.344;6.550;2023-05-07T08:18:04;101173.41;;;19.48;68.81
75740;BME280;64357;51.344;6.550;2023-05-07T08:20:29;101175.09;;;19.48;69.23
75740;BME280;64357;51.344;6.550;2023-05-07T08:22:55;101182.56;;;19.68;68.41
75740;BME280;64357;51.344;6.550;2023-05-07T08:25:22;101180.81;;;19.80;67.63
75740;BME280;64357;51.344;6.550;2023-05-07T08:27:50;101187.22;;;20.63;65.82
75740;BME280;64357;51.344;6.550;2023-05-07T08:30:18;101179.59;;;20.80;64.16
75740;BME280;64357;51.344;6.550;2023-05-07T08:32:49;101186.88;;;21.40;62.45
75740;BME280;64357;51.344;6.550;2023-05-07T08:35:17;101180.00;;;21.55;61.18
75740;BME280;64357;51.344;6.550;2023-05-07T08:37:45;101182.50;;;21.96;60.95
75740;BME280;64357;51.344;6.550;2023-05-07T08:40:14;101173.91;;;22.12;59.54
75740;BME280;64357;51.344;6.550;2023-05-07T08:42:44;101185.34;;;22.45;57.98
75740;BME280;64357;51.344;6.550;2023-05-07T08:45:12;101178.19;;;23.18;55.97
75740;BME280;64357;51.344;6.550;2023-05-07T08:47:51;101175.31;;;23.13;55.24
75740;BME280;64357;51.344;6.550;2023-05-07T08:50:18;101171.22;;;22.40;56.83
75740;BME280;64357;51.344;6.550;2023-05-07T08:52:43;101172.38;;;22.16;58.78
75740;BME280;64357;51.344;6.550;2023-05-07T08:55:12;101177.59;;;22.61;57.37
75740;BME280;64357;51.344;6.550;2023-05-07T08:57:37;101171.19;;;21.96;58.21
75740;BME280;64357;51.344;6.550;2023-05-07T09:00:04;101173.78;;;21.38;60.21
75740;BME280;64357;51.344;6.550;2023-05-07T09:02:35;101175.19;;;21.33;60.01
75740;BME280;64357;51.344;6.550;2023-05-07T09:05:01;101180.25;;;21.88;58.85
75740;BME280;64357;51.344;6.550;2023-05-07T09:07:30;101171.66;;;22.18;57.22
75740;BME280;64357;51.344;6.550;2023-05-07T09:09:56;101178.91;;;22.99;55.40
75740;BME280;64357;51.344;6.550;2023-05-07T09:12:24;101182.91;;;23.74;52.73
75740;BME280;64357;51.344;6.550;2023-05-07T09:14:49;101172.56;;;23.10;52.56
75740;BME280;64357;51.344;6.550;2023-05-07T09:17:16;101171.53;;;22.92;54.26
75740;BME280;64357;51.344;6.550;2023-05-07T09:19:43;101173.97;;;22.43;56.23
75740;BME280;64357;51.344;6.550;2023-05-07T09:22:09;101172.91;;;22.25;57.98
75740;BME280;64357;51.344;6.550;2023-05-07T09:24:34;101171.56;;;21.87;59.22
75740;BME280;64357;51.344;6.550;2023-05-07T09:27:04;101182.00;;;22.17;58.27
75740;BME280;64357;51.344;6.550;2023-05-07T09:29:31;101183.38;;;21.97;57.83
75740;BME280;64357;51.344;6.550;2023-05-07T09:32:08;101178.72;;;22.06;57.50
75740;BME280;64357;51.344;6.550;2023-05-07T09:34:41;101191.88;;;21.65;58.07
75740;BME280;64357;51.344;6.550;2023-05-07T09:37:07;101185.38;;;21.02;59.92
75740;BME280;64357;51.344;6.550;2023-05-07T09:39:43;101185.56;;;21.05;59.75
75740;BME280;64357;51.344;6.550;2023-05-07T09:42:11;101184.38;;;21.99;57.73
75740;BME280;64357;51.344;6.550;2023-05-07T09:44:38;101180.53;;;22.07;56.34
75740;BME280;64357;51.344;6.550;2023-05-07T09:47:06;101173.72;;;22.24;54.45
75740;BME280;64357;51.344;6.550;2023-05-07T09:49:39;101183.00;;;22.65;53.60
75740;BME280;64357;51.344;6.550;2023-05-07T09:52:07;101177.38;;;22.27;52.50
75740;BME280;64357;51.344;6.550;2023-05-07T09:54:39;101177.75;;;23.27;51.41
75740;BME280;64357;51.344;6.550;2023-05-07T09:57:11;101172.47;;;24.42;48.26
75740;BME280;64357;51.344;6.550;2023-05-07T09:59:39;101171.59;;;24.26;48.66
75740;BME280;64357;51.344;6.550;2023-05-07T10:02:10;101177.50;;;24.22;48.31
75740;BME280;64357;51.344;6.550;2023-05-07T10:04:39;101171.53;;;23.90;48.50
75740;BME280;64357;51.344;6.550;2023-05-07T10:07:05;101169.84;;;24.08;48.99
75740;BME280;64357;51.344;6.550;2023-05-07T10:09:32;101168.63;;;24.18;49.39
75740;BME280;64357;51.344;6.550;2023-05-07T10:11:58;101167.72;;;23.83;50.15
75740;BME280;64357;51.344;6.550;2023-05-07T10:14:27;101163.03;;;23.76;48.68
75740;BME280;64357;51.344;6.550;2023-05-07T10:16:54;101168.81;;;23.71;48.28
75740;BME280;64357;51.344;6.550;2023-05-07T10:19:20;101177.47;;;22.75;50.45
75740;BME280;64357;51.344;6.550;2023-05-07T10:21:54;101169.53;;;22.57;50.61
75740;BME280;64357;51.344;6.550;2023-05-07T10:24:27;101172.41;;;22.61;50.27
75740;BME280;64357;51.344;6.550;2023-05-07T10:26:55;101165.63;;;23.11;48.61
75740;BME280;64357;51.344;6.550;2023-05-07T10:32:47;101178.00;;;23.15;48.79
75740;BME280;64357;51.344;6.550;2023-05-07T10:35:19;101177.03;;;23.13;47.80
75740;BME280;64357;51.344;6.550;2023-05-07T10:37:45;101164.75;;;23.10;47.47
75740;BME280;64357;51.344;6.550;2023-05-07T10:40:12;101177.19;;;23.32;48.13
75740;BME280;64357;51.344;6.550;2023-05-07T10:42:38;101175.72;;;23.54;46.73
75740;BME280;64357;51.344;6.550;2023-05-07T10:45:13;101172.22;;;23.37;46.09
75740;BME280;64357;51.344;6.550;2023-05-07T10:50:26;101169.50;;;24.18;44.94
75740;BME280;64357;51.344;6.550;2023-05-07T10:55:44;101177.94;;;24.13;44.14
75740;BME280;64357;51.344;6.550;2023-05-07T10:58:25;101179.78;;;23.00;46.10
75740;BME280;64357;51.344;6.550;2023-05-07T11:01:00;101170.25;;;23.00;45.79
75740;BME280;64357;51.344;6.550;2023-05-07T11:03:28;101173.28;;;23.24;45.70
75740;BME280;64357;51.344;6.550;2023-05-07T11:06:14;101168.09;;;23.40;43.69
75740;BME280;64357;51.344;6.550;2023-05-07T11:09:06;101168.22;;;22.95;46.55
75740;BME280;64357;51.344;6.550;2023-05-07T11:11:47;101165.31;;;23.05;46.50
75740;BME280;64357;51.344;6.550;2023-05-07T11:14:14;101159.59;;;23.12;46.29
75740;BME280;64357;51.344;6.550;2023-05-07T11:17:03;101161.16;;;23.25;45.58
75740;BME280;64357;51.344;6.550;2023-05-07T11:19:54;101166.19;;;21.99;48.64
75740;BME280;64357;51.344;6.550;2023-05-07T11:25:05;101166.22;;;22.59;47.71
75740;BME280;64357;51.344;6.550;2023-05-07T11:27:32;101164.56;;;22.76;46.90
75740;BME280;64357;51.344;6.550;2023-05-07T11:29:58;101159.31;;;22.91;47.10
75740;BME280;64357;51.344;6.550;2023-05-07T11:32:27;101160.19;;;22.60;47.54
75740;BME280;64357;51.344;6.550;2023-05-07T11:34:54;101164.72;;;22.33;47.98
75740;BME280;64357;51.344;6.550;2023-05-07T11:37:21;101168.28;;;22.65;47.97
75740;BME280;64357;51.344;6.550;2023-05-07T11:39:46;101164.41;;;23.04;47.03
75740;BME280;64357;51.344;6.550;2023-05-07T11:42:32;101168.88;;;23.07;46.37
75740;BME280;64357;51.344;6.550;2023-05-07T11:45:01;101160.31;;;23.09;46.35
75740;BME280;64357;51.344;6.550;2023-05-07T11:47:37;101161.88;;;23.06;46.27
75740;BME280;64357;51.344;6.550;2023-05-07T11:50:07;101161.03;;;22.91;46.47
75740;BME280;64357;51.344;6.550;2023-05-07T11:52:38;101159.44;;;23.41;46.39
75740;BME280;64357;51.344;6.550;2023-05-07T11:55:04;101156.00;;;23.10;45.94
75740;BME280;64357;51.344;6.550;2023-05-07T11:57:30;101167.66;;;22.85;45.90
75740;BME280;64357;51.344;6.550;2023-05-07T11:59:59;101167.47;;;22.66;46.18
75740;BME280;64357;51.344;6.550;2023-05-07T12:02:27;101166.41;;;22.94;46.86
75740;BME280;64357;51.344;6.550;2023-05-07T12:04:55;101173.69;;;23.32;45.75
75740;BME280;64357;51.344;6.550;2023-05-07T12:07:23;101166.91;;;23.03;46.57
75740;BME280;64357;51.344;6.550;2023-05-07T12:09:49;101170.50;;;23.05;46.35
75740;BME280;64357;51.344;6.550;2023-05-07T12:12:15;101178.41;;;22.75;47.54
75740;BME280;64357;51.344;6.550;2023-05-07T12:14:45;101178.44;;;22.60;47.52
75740;BME280;64357;51.344;6.550;2023-05-07T12:17:12;101182.69;;;22.44;47.98
75740;BME280;64357;51.344;6.550;2023-05-07T12:19:44;101180.41;;;22.50;48.59
75740;BME280;64357;51.344;6.550;2023-05-07T12:22:12;101170.28;;;22.54;48.95
75740;BME280;64357;51.344;6.550;2023-05-07T12:24:45;101175.47;;;22.40;49.49
75740;BME280;64357;51.344;6.550;2023-05-07T12:27:16;101175.41;;;22.08;49.53
75740;BME280;64357;51.344;6.550;2023-05-07T12:29:49;101178.81;;;22.07;50.43
75740;BME280;64357;51.344;6.550;2023-05-07T12:32:20;101166.28;;;22.15;49.84
75740;BME280;64357;51.344;6.550;2023-05-07T12:34:49;101170.03;;;22.20;49.92
75740;BME280;64357;51.344;6.550;2023-05-07T12:37:22;101167.28;;;22.17;48.83
75740;BME280;64357;51.344;6.550;2023-05-07T12:39:48;101176.69;;;22.30;49.78
75740;BME280;64357;51.344;6.550;2023-05-07T12:42:18;101172.63;;;22.05;49.61
75740;BME280;64357;51.344;6.550;2023-05-07T12:44:50;101170.56;;;22.00;49.80
75740;BME280;64357;51.344;6.550;2023-05-07T12:47:18;101178.19;;;21.97;49.39
75740;BME280;64357;51.344;6.550;2023-05-07T12:49:43;101174.16;;;22.02;49.82
75740;BME280;64357;51.344;6.550;2023-05-07T12:52:11;101181.34;;;22.06;49.71
75740;BME280;64357;51.344;6.550;2023-05-07T12:54:39;101174.81;;;22.13;49.77
75740;BME280;64357;51.344;6.550;2023-05-07T12:57:06;101175.78;;;22.15;49.16
75740;BME280;64357;51.344;6.550;2023-05-07T12:59:41;101184.56;;;22.02;49.07